CET,Max TemperatureF,Mean TemperatureF,Min TemperatureF,Max Dew PointF,MeanDew PointF,Min DewpointF,Max Humidity, Mean Humidity, Min Humidity, Max Sea Level PressureIn, Mean Sea Level PressureIn, Min Sea Level PressureIn, Max VisibilityMiles, Mean VisibilityMiles, Min VisibilityMiles, Max Wind SpeedMPH, Mean Wind SpeedMPH, Max Gust SpeedMPH,PrecipitationIn, CloudCover, Events, WindDirDegrees
2012-10-1,82,70,59,64,58,52,82,67,48,30.09,30.07,30.04,,,,8,7,,0.00,,,145
2012-10-2,73,68,64,66,63,59,94,83,73,30.06,30.01,29.95,6,6,4,14,8,26,0.00,7,Rain-Thunderstorm,80
2012-10-3,68,62,57,59,55,52,100,78,56,30.06,30.05,30.04,6,5,4,14,10,,0.00,3,,238
2012-10-4,73,60,46,55,50,46,100,75,44,30.09,30.04,29.98,6,6,6,6,3,,0.00,1,Fog,163
2012-10-5,68,60,51,50,47,41,94,67,43,30.15,30.11,30.04,6,6,6,12,5,,0.00,6,Fog,262
2012-10-6,77,60,42,50,44,41,93,56,29,30.15,30.11,30.04,,,,7,3,,0.00,,,185
2012-10-7,69,60,50,57,51,45,82,71,64,29.98,29.91,29.77,6,5,4,12,6,,0.00,7,,194
2012-10-8,59,50,42,45,42,41,93,75,55,30.12,30.09,30.06,6,6,6,13,8,,0.00,3,,291
2012-10-9,59,47,35,41,37,34,93,70,45,30.04,29.96,29.86,6,6,6,9,5,,0.00,6,Fog,177
2012-10-10,60,51,42,46,41,37,93,69,45,29.95,29.91,29.89,,,,7,3,,0.00,,,297
2012-10-11,59,50,42,46,43,37,100,77,48,29.98,29.97,29.95,6,5,0,8,5,,0.00,1,Fog,256
2012-10-12,62,52,42,46,41,37,93,69,39,30.01,29.97,29.92,6,5,5,8,5,,0.00,7,Fog-Rain,68
2012-10-13,64,56,48,52,47,45,93,79,49,30.04,29.99,29.95,5,4,4,6,1,,0.00,8,Rain,242
2012-10-14,57,54,50,55,53,50,100,97,94,29.86,29.85,29.83,4,2,0,6,2,,0.00,8,Fog-Rain,112
2012-10-15,69,60,51,59,55,52,100,82,64,29.83,29.82,29.80,6,4,0,12,6,,0.00,5,Fog,144
2012-10-16,71,64,57,59,56,54,88,76,60,29.89,29.81,29.77,6,6,6,18,10,,0.00,7,Rain,151
2012-10-17,59,52,46,48,46,45,93,78,63,30.24,30.19,30.12,6,6,6,12,9,,0.00,4,,199
2012-10-18,68,54,39,48,42,37,100,69,33,30.30,30.25,30.21,6,4,0,5,1,,0.00,4,Fog,128
2012-10-19,75,58,42,50,46,41,100,69,38,30.21,30.19,30.15,6,6,6,8,3,,0.00,1,Fog,151
2012-10-20,77,60,42,48,46,43,100,67,36,30.15,30.13,30.09,6,6,6,5,2,,0.00,1,Fog,137
2012-10-21,69,56,42,50,47,43,100,75,49,30.21,30.17,30.12,6,2,0,7,3,,0.00,,Fog,75
2012-10-22,68,52,35,52,44,36,100,85,52,30.21,30.18,30.15,5,1,0,6,1,,0.00,,Fog,353
2012-10-23,66,52,39,57,47,39,100,88,60,30.21,30.18,30.15,5,1,0,4,1,,0.00,,Fog,314
2012-10-24,60,48,37,46,43,37,100,83,59,30.15,30.11,30.06,5,2,0,6,3,,0.00,1,Fog,304
2012-10-25,51,48,46,50,49,46,100,99,94,30.04,29.98,29.89,3,1,0,6,4,,0.00,8,Fog,196
2012-10-26,60,51,42,46,44,41,100,76,48,29.89,29.86,29.80,6,4,2,9,7,,0.00,5,,235
2012-10-27,64,55,46,54,47,41,88,71,56,29.53,29.39,29.27,6,6,4,20,13,33,0.00,8,Rain,164
2012-10-28,46,42,39,46,40,34,100,95,81,29.77,29.59,29.42,6,5,2,20,11,,0.00,8,Rain,344
2012-10-29,37,36,35,37,35,34,100,93,87,29.83,29.78,29.74,6,4,2,9,7,,0.00,8,Rain,340
2012-10-30,42,38,33,36,32,28,93,80,61,29.95,29.88,29.83,6,5,4,15,12,,0.00,7,Rain-Snow,256
2012-10-31,48,38,28,36,32,27,100,77,58,30.01,29.99,29.95,,,,9,6,,0.00,,,136